Time;durP1;ratioP1;P1;durP2;ratioP2;P2;SDS_P1;SDS_P2;PMS_P1;PMS_P2;Temp;Humidity;BMP_temperature;BMP_pressure;BME280_temperature;BME280_humidity;BME280_pressure;Samples;Min_cycle;Max_cycle;Signal;HPM_P1;HPM_P2
2022/10/21 00:02:20;;;;;;;18.88;8.88;;;7.50;99.90;;;6.06;95.77;101106.38;5033777;28;20041;-83
2022/10/21 00:04:46;;;;;;;19.20;9.20;;;7.50;99.90;;;6.06;95.54;101114.22;5035347;28;20123;-84
2022/10/21 00:07:16;;;;;;;17.45;9.15;;;7.60;99.90;;;6.05;95.90;101102.91;5033840;28;20140;-83
2022/10/21 00:09:47;;;;;;;19.73;9.00;;;7.60;99.90;;;6.08;95.91;101102.84;5018414;28;20020;-84
2022/10/21 00:12:20;;;;;;;18.73;9.50;;;7.60;99.90;;;6.13;95.72;101107.94;5051101;28;20037;-83
2022/10/21 00:14:48;;;;;;;19.35;8.60;;;7.60;99.90;;;6.15;95.22;101106.16;5052693;28;20154;-84
2022/10/21 00:17:31;;;;;;;19.13;9.43;;;7.60;99.90;;;6.18;95.45;101108.72;5052858;28;20029;-84
2022/10/21 00:19:57;;;;;;;18.40;9.52;;;7.70;99.90;;;6.20;95.55;101109.56;5039003;28;20081;-84
2022/10/21 00:22:37;;;;;;;17.08;8.88;;;7.70;99.90;;;6.25;95.38;101107.69;5035923;28;20032;-84
2022/10/21 00:25:09;;;;;;;20.02;9.38;;;;;;;6.23;95.25;101106.88;5011460;28;20042;-85
2022/10/21 00:27:38;;;;;;;18.73;9.25;;;7.70;99.90;;;6.22;95.53;101101.66;5021848;28;20078;-85
2022/10/21 00:30:18;;;;;;;17.35;8.52;;;7.70;99.90;;;6.29;95.48;101100.66;5023009;28;20588;-85
2022/10/21 00:33:22;;;;;;;;;;;;;;;;;;;;;
2022/10/21 00:36:04;;;;;;;;;;;;;;;;;;;;;
2022/10/21 00:38:31;;;;;;;18.88;8.90;;;7.80;99.90;;;6.40;94.82;101080.31;5046920;28;20017;-84
2022/10/21 00:41:00;;;;;;;16.20;9.27;;;7.90;99.90;;;6.45;94.79;101070.59;5025574;28;20026;-85
2022/10/21 00:44:21;;;;;;;16.10;9.57;;;7.90;99.90;;;6.49;94.98;101077.47;5026680;28;20402;-84
2022/10/21 00:47:02;;;;;;;19.38;9.13;;;7.90;99.90;;;6.49;94.93;101071.41;5023792;28;20052;-85
2022/10/21 00:50:04;;;;;;;21.00;9.48;;;7.90;99.90;;;6.48;95.54;101062.69;5022458;28;20055;-84
2022/10/21 00:52:40;;;;;;;21.40;9.55;;;8.00;99.90;;;6.46;95.92;101054.03;4953266;28;20099;-84
2022/10/21 00:55:06;;;;;;;19.77;9.98;;;7.90;99.90;;;6.47;96.03;101050.50;5010048;28;20044;-84
2022/10/21 00:57:34;;;;;;;24.17;9.77;;;8.00;99.90;;;6.48;95.82;101049.63;5018492;28;20677;-84
2022/10/21 01:00:05;;;;;;;21.08;10.32;;;8.00;99.90;;;6.52;95.98;101050.38;5026943;28;20071;-84
2022/10/21 01:02:31;;;;;;;18.70;8.98;;;8.00;99.90;;;6.55;96.06;101051.19;5010482;28;20091;-83
2022/10/21 01:05:01;;;;;;;16.08;9.23;;;8.00;99.90;;;6.56;96.10;101052.03;5020465;28;20120;-85
2022/10/21 01:07:34;;;;;;;17.58;9.82;;;8.00;99.90;;;6.53;96.39;101041.66;5010711;28;20179;-84
2022/10/21 01:10:00;;;;;;;19.05;9.82;;;8.00;99.90;;;6.53;96.34;101036.41;5010293;28;20055;-84
2022/10/21 01:13:07;;;;;;;22.45;9.38;;;8.00;99.90;;;6.54;96.93;101043.34;5020935;28;20558;-85
2022/10/21 01:15:56;;;;;;;20.33;10.30;;;8.10;99.90;;;6.55;97.40;101025.00;5007058;28;20672;-84
2022/10/21 01:18:57;;;;;;;21.60;11.02;;;8.10;99.90;;;6.60;97.51;101030.13;5029141;28;20029;-83
2022/10/21 01:21:49;;;;;;;20.42;10.45;;;8.00;99.90;;;6.56;97.88;101031.09;5007471;28;20061;-84
2022/10/21 01:24:52;;;;;;;22.60;10.88;;;8.10;99.90;;;6.55;98.53;101032.88;5026658;28;20059;-83
2022/10/21 01:27:33;;;;;;;18.83;10.02;;;8.00;99.90;;;6.58;98.96;101030.16;5012388;28;20076;-84
2022/10/21 01:30:44;;;;;;;20.08;9.73;;;8.00;99.90;;;6.54;99.81;101009.34;5035248;28;20116;-83
2022/10/21 01:33:40;;;;;;;22.00;10.50;;;8.10;99.90;;;6.59;100.00;101017.97;5044193;28;20025;-84
2022/10/21 01:36:27;;;;;;;19.48;11.13;;;8.00;99.90;;;6.66;100.00;101016.88;5015080;28;20029;-84
2022/10/21 01:39:04;;;;;;;20.58;11.20;;;8.10;99.90;;;6.67;100.00;101018.59;5018657;28;20518;-83
2022/10/21 01:41:47;;;;;;;24.42;11.35;;;8.10;99.90;;;6.71;100.00;101015.00;5023823;28;20030;-84
2022/10/21 01:44:27;;;;;;;22.67;11.77;;;;;;;6.74;100.00;101024.56;5006700;28;20392;-84
2022/10/21 01:47:19;;;;;;;21.65;11.43;;;8.20;99.90;;;6.82;100.00;101016.50;5028212;28;20444;-84
2022/10/21 01:50:21;;;;;;;26.35;11.88;;;8.20;99.90;;;6.88;100.00;101026.81;5009896;28;20048;-83
2022/10/21 01:53:00;;;;;;;28.27;12.85;;;8.20;99.90;;;6.85;100.00;101027.75;5030490;28;20051;-83
2022/10/21 01:55:50;;;;;;;30.73;12.35;;;;;;;6.95;100.00;101028.34;5019449;28;20064;-83
2022/10/21 01:58:31;;;;;;;32.22;12.18;;;8.30;99.90;;;6.88;100.00;101016.31;5038723;28;20077;-83
2022/10/21 02:01:23;;;;;;;;;;;;;;;;;;;;;
2022/10/21 02:03:56;;;;;;;26.15;12.70;;;;;;;6.96;100.00;101024.84;5032452;28;20296;-83
2022/10/21 02:06:31;;;;;;;23.17;12.50;;;;;;;6.93;100.00;101006.59;5029914;28;20463;-84
2022/10/21 02:09:00;;;;;;;27.30;12.32;;;;;;;6.87;100.00;100997.16;5027028;28;20035;-85
2022/10/21 02:12:02;;;;;;;;;;;;;;;;;;;;;
2022/10/21 02:14:33;;;;;;;23.80;10.82;;;;;;;6.84;100.00;100988.50;5030063;28;20017;-85
2022/10/21 02:16:59;;;;;;;23.50;12.55;;;;;;;6.77;100.00;100982.59;5043332;28;20063;-85
2022/10/21 02:19:42;;;;;;;21.63;12.23;;;;;;;6.74;100.00;100983.53;5050950;28;20029;-85
2022/10/21 02:22:31;;;;;;;20.92;11.27;;;;;;;6.72;100.00;100985.34;5022251;28;20048;-85
2022/10/21 02:25:09;;;;;;;22.05;11.70;;;8.30;99.90;;;6.72;100.00;100982.72;5033856;28;20025;-85
2022/10/21 02:27:35;;;;;;;24.48;12.65;;;8.30;99.90;;;6.73;100.00;100976.56;5011326;28;20022;-84
2022/10/21 02:30:01;;;;;;;36.53;12.95;;;8.30;99.90;;;6.83;100.00;100986.81;5028243;28;20096;-82
2022/10/21 02:32:39;;;;;;;29.40;13.48;;;8.30;99.90;;;6.80;100.00;100973.78;5017963;28;20068;-84
2022/10/21 02:35:40;;;;;;;26.63;14.32;;;8.30;99.90;;;6.84;100.00;100988.50;5027203;28;20564;-84
2022/10/21 02:38:30;;;;;;;22.17;13.65;;;8.30;99.90;;;6.82;100.00;100980.69;5027707;28;20033;-83
2022/10/21 02:41:16;;;;;;;25.70;13.55;;;8.30;99.90;;;6.77;100.00;100986.06;5026139;28;20057;-84
2022/10/21 02:44:07;;;;;;;28.02;13.80;;;8.30;99.90;;;6.73;100.00;100965.25;5025811;28;20474;-84
2022/10/21 02:46:46;;;;;;;22.55;13.10;;;8.30;99.90;;;6.75;100.00;100966.06;5030980;28;20033;-83
2022/10/21 02:49:11;;;;;;;26.17;13.85;;;8.30;99.90;;;6.72;100.00;100974.88;5030309;28;20037;-83
2022/10/21 02:51:38;;;;;;;29.27;14.15;;;8.20;99.90;;;6.70;100.00;100981.91;5015181;28;20523;-85
2022/10/21 02:54:04;;;;;;;28.77;14.88;;;8.30;99.90;;;6.78;100.00;100979.06;5012463;28;20026;-84
2022/10/21 02:56:42;;;;;;;34.22;16.23;;;8.30;99.90;;;6.75;100.00;100971.31;5015949;28;20100;-84
2022/10/21 02:59:08;;;;;;;33.35;15.90;;;8.30;99.90;;;6.74;100.00;100966.97;5009440;28;20077;-85
2022/10/21 03:01:49;;;;;;;38.30;15.75;;;;;;;6.75;100.00;100953.84;5011566;28;20448;-84
2022/10/21 03:04:22;;;;;;;31.95;16.20;;;;;;;6.67;100.00;100950.56;5022279;28;20025;-85
2022/10/21 03:06:50;;;;;;;33.58;17.38;;;8.20;99.90;;;6.76;100.00;100960.81;5028241;28;20029;-86
2022/10/21 03:09:48;;;;;;;38.05;17.75;;;8.20;99.90;;;6.70;100.00;100958.34;5029344;28;20032;-85
2022/10/21 03:12:22;;;;;;;33.20;16.73;;;;;;;6.67;100.00;100945.31;4992473;28;20046;-84
2022/10/21 03:14:48;;;;;;;37.40;17.75;;;;;;;6.68;100.00;100939.22;5041592;28;20064;-84
2022/10/21 03:17:24;;;;;;;;;;;;;;;;;;;;;
2022/10/21 03:19:50;;;;;;;;;;;8.10;99.90;;;6.64;100.00;100940.19;5024107;28;20033;-82
2022/10/21 03:22:51;;;;;;;37.30;18.17;;;8.10;99.90;;;6.57;100.00;100925.56;5006737;28;19999;-84
2022/10/21 03:26:22;;;;;;;37.30;18.10;;;8.00;99.90;;;6.54;100.00;100915.16;5011132;28;20554;-83
2022/10/21 03:28:59;;;;;;;37.75;18.17;;;8.00;99.90;;;6.47;100.00;100916.22;5003433;28;20552;-83
2022/10/21 03:31:51;;;;;;;33.78;18.67;;;8.00;99.90;;;6.46;100.00;100917.16;5011083;28;20092;-83
2022/10/21 03:34:19;;;;;;;36.45;19.23;;;;;;;6.45;100.00;100913.66;5001705;28;20029;-84
2022/10/21 03:37:42;;;;;;;39.35;19.23;;;7.90;99.90;;;6.42;100.00;100907.66;5022484;28;20124;-83
2022/10/21 03:40:08;;;;;;;41.72;18.92;;;;;;;6.37;100.00;100907.75;5014115;28;20060;-83
2022/10/21 03:42:37;;;;;;;38.03;20.25;;;7.90;99.90;;;6.41;100.00;100917.25;5027140;28;20115;-82
2022/10/21 03:45:11;;;;;;;46.20;20.63;;;7.90;99.90;;;6.39;100.00;100912.97;5008680;28;20032;-83
2022/10/21 03:47:37;;;;;;;47.22;20.40;;;7.90;99.90;;;6.36;100.00;100912.13;5016875;28;20092;-84
2022/10/21 03:50:13;;;;;;;42.63;20.80;;;7.80;99.90;;;6.40;100.00;100915.53;5005229;28;20048;-82
2022/10/21 03:52:39;;;;;;;43.17;21.35;;;7.80;99.90;;;6.36;100.00;100914.75;5026465;28;20385;-83
2022/10/21 03:55:05;;;;;;;40.47;21.52;;;7.80;99.90;;;6.34;100.00;100911.31;5002816;28;20025;-83
2022/10/21 03:57:31;;;;;;;42.20;19.75;;;7.80;99.90;;;6.30;100.00;100907.06;5009813;28;20483;-83
2022/10/21 03:59:57;;;;;;;39.45;20.13;;;7.80;99.90;;;6.28;100.00;100908.84;5010051;28;20096;-84
2022/10/21 04:02:31;;;;;;;43.00;21.65;;;7.80;99.90;;;6.30;100.00;100914.06;5009315;28;20120;-82
2022/10/21 04:04:57;;;;;;;41.95;20.45;;;7.70;99.90;;;6.26;100.00;100908.03;5009469;28;20021;-83
2022/10/21 04:07:23;;;;;;;46.95;21.52;;;7.70;99.90;;;6.28;100.00;100911.47;5004622;28;20116;-83
2022/10/21 04:09:49;;;;;;;41.90;20.90;;;7.70;99.90;;;6.27;100.00;100909.78;5008013;28;20120;-83
2022/10/21 04:12:19;;;;;;;44.13;22.70;;;7.70;99.90;;;6.32;100.00;100917.50;5001552;28;20039;-84
2022/10/21 04:14:45;;;;;;;45.45;20.95;;;7.70;99.90;;;6.28;100.00;100913.22;5023804;28;20041;-84
2022/10/21 04:17:11;;;;;;;44.20;21.90;;;7.70;99.90;;;6.28;100.00;100908.00;5029582;28;20426;-84
2022/10/21 04:19:37;;;;;;;47.92;22.63;;;7.80;99.90;;;6.39;100.00;100910.34;5031050;28;20025;-83
2022/10/21 04:22:03;;;;;;;41.38;20.48;;;7.80;99.90;;;6.39;100.00;100908.56;5026702;28;20116;-83
2022/10/21 04:24:29;;;;;;;46.03;22.27;;;7.80;99.90;;;6.38;100.00;100898.19;5015856;28;20033;-84
2022/10/21 04:27:00;;;;;;;50.47;24.15;;;7.80;99.90;;;6.36;100.00;100887.75;5021542;28;20119;-84
2022/10/21 04:29:28;;;;;;;40.40;21.10;;;7.80;99.90;;;6.27;100.00;100888.00;5005389;28;20386;-83
2022/10/21 04:31:57;;;;;;;44.33;21.42;;;7.70;99.90;;;6.29;100.00;100888.81;5006958;28;20053;-83
2022/10/21 04:34:30;;;;;;;45.58;23.30;;;7.70;99.90;;;6.25;100.00;100880.19;5025239;28;20025;-84
2022/10/21 04:36:59;;;;;;;44.17;21.98;;;7.60;99.90;;;6.12;100.00;100869.19;5021266;28;20028;-84
2022/10/21 04:39:25;;;;;;;43.47;21.58;;;7.60;99.90;;;6.05;100.00;100866.78;5011525;28;20065;-83
2022/10/21 04:41:56;;;;;;;46.35;23.08;;;7.50;99.90;;;6.06;100.00;100856.25;5023234;28;20036;-84
2022/10/21 04:44:29;;;;;;;45.30;21.95;;;7.50;99.90;;;6.04;100.00;100852.84;5024765;28;20022;-83
2022/10/21 04:47:21;;;;;;;44.50;23.05;;;7.50;99.90;;;5.99;100.00;100853.88;5035181;28;20055;-83
2022/10/21 04:49:50;;;;;;;46.88;22.23;;;7.40;99.90;;;5.84;100.00;100852.47;4997274;28;20041;-83
2022/10/21 04:52:27;;;;;;;41.42;21.85;;;;;;;5.85;100.00;100849.81;5022757;28;20104;-84
2022/10/21 04:55:01;;;;;;;47.17;22.40;;;;;;;5.83;100.00;100849.00;5022988;28;20045;-83
2022/10/21 04:57:30;;;;;;;44.78;22.92;;;;;;;5.81;100.00;100829.88;5021227;28;20037;-83
2022/10/21 05:00:10;;;;;;;47.30;24.25;;;7.30;99.90;;;5.84;100.00;100839.41;5018549;28;20030;-83
2022/10/21 05:02:46;;;;;;;52.85;23.80;;;;;;;5.76;100.00;100837.81;5011156;28;20416;-83
2022/10/21 05:05:11;;;;;;;50.67;24.15;;;7.20;99.90;;;5.71;100.00;100833.63;5020414;28;20112;-83
2022/10/21 05:07:38;;;;;;;58.88;25.75;;;;;;;5.70;100.00;100827.53;5022262;28;20047;-82
2022/10/21 05:10:21;;;;;;;64.90;31.10;;;7.20;99.90;;;5.70;100.00;100822.31;5024196;28;20049;-83
2022/10/21 05:12:59;;;;;;;80.07;36.58;;;7.20;99.90;;;5.76;100.00;100823.91;5022326;28;20027;-83
2022/10/21 05:15:48;;;;;;;98.15;45.00;;;;;;;5.72;100.00;100809.19;5005875;28;20047;-84
2022/10/21 05:18:18;;;;;;;90.32;40.13;;;;;;;5.72;100.00;100820.53;5024523;28;20568;-84
2022/10/21 05:20:53;;;;;;;67.78;32.92;;;7.20;99.90;;;5.71;100.00;100818.78;5038000;28;20416;-83
2022/10/21 05:23:19;;;;;;;62.20;32.28;;;7.20;99.90;;;5.66;100.00;100814.56;5023554;28;20024;-83
2022/10/21 05:25:50;;;;;;;64.38;31.40;;;7.20;99.90;;;5.73;100.00;100813.53;5002731;28;20555;-83
2022/10/21 05:28:52;;;;;;;;;;;;;;;;;;;;;
2022/10/21 05:31:18;;;;;;;61.63;27.73;;;7.20;99.90;;;5.70;100.00;100818.81;5022165;28;20056;-83
2022/10/21 05:33:54;;;;;;;;;;;;;;;;;;;;;
2022/10/21 05:36:20;;;;;;;;;;;7.20;99.90;;;5.60;100.00;100792.09;5038902;28;20041;-83
2022/10/21 05:38:46;;;;;;;53.17;24.67;;;7.00;99.90;;;5.53;100.00;100783.53;5004141;28;20316;-83
2022/10/21 05:41:12;;;;;;;54.45;25.00;;;7.10;99.90;;;5.49;100.00;100781.91;5009174;28;20115;-83
2022/10/21 05:43:38;;;;;;;63.35;31.85;;;7.00;99.90;;;5.50;100.00;100785.38;5004402;28;20040;-85
2022/10/21 05:46:14;;;;;;;;;;;;;;;;;;;;;
2022/10/21 05:48:40;;;;;;;58.38;28.92;;;7.10;99.90;;;5.62;100.00;100779.84;5027933;28;20033;-82
2022/10/21 05:51:07;;;;;;;63.95;28.17;;;7.10;99.90;;;5.61;100.00;100788.56;5010975;28;20085;-83
2022/10/21 05:53:33;;;;;;;55.55;26.67;;;7.00;99.90;;;5.52;100.00;100786.19;5008407;28;20029;-84
2022/10/21 05:56:10;;;;;;;59.53;28.02;;;7.00;99.90;;;5.52;100.00;100789.66;5029228;28;20037;-83
2022/10/21 05:58:38;;;;;;;57.30;28.05;;;7.00;99.90;;;5.61;100.00;100793.78;5017513;28;20037;-83
2022/10/21 06:01:13;;;;;;;62.05;29.65;;;7.10;99.90;;;5.71;100.00;100812.72;5024712;28;20030;-83
2022/10/21 06:03:39;;;;;;;62.58;30.08;;;7.10;99.90;;;5.73;100.00;100806.53;5022189;28;20040;-83
2022/10/21 06:06:15;;;;;;;72.50;31.67;;;7.10;99.90;;;5.77;100.00;100804.72;5011701;28;20029;-83
2022/10/21 06:08:41;;;;;;;65.07;30.13;;;7.20;99.90;;;5.81;100.00;100790.69;5013423;28;20038;-81
2022/10/21 06:11:16;;;;;;;67.72;30.23;;;7.30;99.90;;;5.83;100.00;100783.66;5024437;28;20052;-83
2022/10/21 06:13:42;;;;;;;63.83;29.08;;;7.30;99.90;;;5.89;100.00;100791.31;5011418;28;20033;-84
2022/10/21 06:16:10;;;;;;;56.60;28.85;;;7.30;99.90;;;5.93;100.00;100789.50;5019129;28;20107;-83
2022/10/21 06:18:36;;;;;;;58.80;29.15;;;7.30;99.90;;;5.95;100.00;100798.19;5025270;28;20040;-83
2022/10/21 06:21:05;;;;;;;64.07;28.27;;;7.40;99.90;;;5.91;100.00;100799.97;5006025;28;20108;-83
2022/10/21 06:23:32;;;;;;;61.60;28.33;;;7.40;99.90;;;5.94;100.00;100805.19;5025329;28;20036;-84
2022/10/21 06:26:04;;;;;;;55.80;26.17;;;7.40;99.90;;;5.93;100.00;100826.94;5035367;23;20494;-79
2022/10/21 06:28:36;;;;;;;51.75;26.08;;;7.40;99.90;;;5.90;100.00;100820.94;5041337;28;20029;-78
2022/10/21 06:31:03;;;;;;;54.53;26.17;;;7.30;99.90;;;6.03;100.00;100819.75;5044826;28;20029;-79
2022/10/21 06:33:28;;;;;;;60.78;28.42;;;7.60;99.90;;;8.29;100.00;100812.75;5041474;28;20029;-77
2022/10/21 06:35:55;;;;;;;52.35;26.20;;;8.00;99.90;;;7.99;100.00;100799.84;5031017;28;20543;-78
2022/10/21 06:38:21;;;;;;;55.03;27.25;;;8.20;99.90;;;8.51;100.00;100806.75;5022848;28;20502;-77
2022/10/21 06:40:47;;;;;;;44.30;23.55;;;8.60;99.90;;;10.33;97.59;100810.88;5021307;28;20088;-78
2022/10/21 06:43:16;;;;;;;41.75;22.70;;;9.10;99.90;;;11.15;87.37;100811.50;5023490;28;20065;-78
2022/10/21 06:45:42;;;;;;;43.53;22.13;;;9.50;99.90;;;10.67;85.44;100811.06;5021989;28;20026;-77
2022/10/21 06:48:08;;;;;;;44.25;22.85;;;9.90;99.90;;;11.89;82.28;100813.16;5024675;28;20058;-78
2022/10/21 06:50:36;;;;;;;38.80;20.70;;;10.40;99.90;;;13.27;75.53;100810.22;5022358;28;20026;-78
2022/10/21 06:53:02;;;;;;;34.47;19.20;;;10.90;99.90;;;14.42;71.05;100806.09;5020750;28;20082;-78
2022/10/21 06:55:29;;;;;;;36.13;17.70;;;11.60;99.90;;;15.27;67.54;100806.09;5020961;28;20049;-79
2022/10/21 06:57:57;;;;;;;38.78;19.58;;;12.30;99.90;;;15.57;65.29;100813.84;5021258;28;20033;-79
2022/10/21 07:00:23;;;;;;;32.53;17.48;;;12.90;99.90;;;16.32;63.64;100813.28;5021532;28;20034;-79
2022/10/21 07:02:49;;;;;;;34.88;18.70;;;13.40;99.90;;;16.74;62.49;100824.53;5036453;28;20671;-78
2022/10/21 07:05:15;;;;;;;30.08;15.75;;;13.60;99.90;;;15.75;63.97;100825.94;5020089;28;20108;-77
2022/10/21 07:07:41;;;;;;;34.58;17.92;;;14.10;99.90;;;16.88;62.08;100839.53;5021276;28;20573;-78
2022/10/21 07:10:07;;;;;;;35.50;16.15;;;14.40;99.90;;;15.68;64.02;100835.25;5023642;28;20022;-78
2022/10/21 07:12:35;;;;;;;27.10;15.88;;;14.60;99.90;;;16.02;63.21;100837.47;5022205;28;20036;-78
2022/10/21 07:15:01;;;;;;;27.80;16.27;;;14.80;99.90;;;16.82;61.71;100851.44;5021875;28;20477;-79
2022/10/21 07:17:30;;;;;;;30.38;17.52;;;15.10;99.90;;;17.31;60.66;100850.56;5012978;28;20032;-80
2022/10/21 07:19:56;;;;;;;31.83;15.77;;;15.50;99.90;;;17.98;59.15;100860.72;5023197;28;20033;-78
2022/10/21 07:22:21;;;;;;;24.85;15.15;;;15.90;99.90;;;16.94;59.41;100847.06;5024291;28;20025;-78
2022/10/21 07:24:47;;;;;;;25.25;14.88;;;15.60;99.90;;;14.31;65.49;100840.34;5021739;28;20045;-78
2022/10/21 07:27:16;;;;;;;26.33;15.23;;;14.90;99.90;;;13.63;69.59;100846.09;5021497;28;20508;-78
2022/10/21 07:29:42;;;;;;;29.35;15.35;;;14.70;99.90;;;15.70;65.44;100865.19;5027475;28;20120;-78
2022/10/21 07:32:08;;;;;;;23.27;14.07;;;15.10;99.90;;;16.89;62.31;100851.84;5023163;28;20107;-78
2022/10/21 07:34:34;;;;;;;26.58;14.65;;;15.70;99.90;;;17.16;60.96;100846.38;5024327;28;20065;-78
2022/10/21 07:37:00;;;;;;;30.45;15.38;;;16.20;99.90;;;17.28;60.26;100845.47;5021137;28;20085;-78
2022/10/21 07:39:26;;;;;;;24.73;15.90;;;16.70;99.90;;;17.54;59.63;100856.03;5006384;28;20168;-79
2022/10/21 07:41:55;;;;;;;21.95;13.35;;;16.90;99.90;;;17.01;60.07;100841.19;5018655;28;20036;-79
2022/10/21 07:44:23;;;;;;;24.60;15.48;;;17.10;99.90;;;17.39;59.68;100848.22;5025322;28;20037;-78
2022/10/21 07:46:50;;;;;;;26.13;15.63;;;17.40;99.90;;;17.75;59.12;100853.56;5022080;28;20037;-79
2022/10/21 07:49:18;;;;;;;22.63;13.98;;;17.70;99.90;;;17.98;58.54;100855.38;5021919;28;20039;-79
2022/10/21 07:51:52;;;;;;;23.45;13.63;;;17.90;99.90;;;17.68;59.19;100841.69;5020660;28;20036;-79
2022/10/21 07:54:18;;;;;;;19.75;13.00;;;18.20;99.90;;;18.09;58.48;100840.41;5020787;28;20046;-79
2022/10/21 07:56:53;;;;;;;23.95;13.52;;;18.30;99.90;;;17.56;59.27;100831.00;5020231;28;20022;-78
2022/10/21 07:59:20;;;;;;;16.25;11.70;;;18.20;99.90;;;17.41;59.98;100829.47;5028269;28;20018;-78
2022/10/21 08:01:47;;;;;;;24.92;13.15;;;18.20;99.90;;;16.98;60.50;100821.94;5027226;28;20364;-78
2022/10/21 08:04:17;;;;;;;19.45;12.48;;;17.30;99.90;;;15.54;63.33;100812.25;5026991;28;20041;-79
2022/10/21 08:06:45;;;;;;;22.88;12.93;;;16.90;99.90;;;14.47;66.36;100812.00;5016993;28;20030;-78
2022/10/21 08:09:12;;;;;;;24.33;13.88;;;16.10;99.90;;;14.38;68.04;100816.97;5037578;28;20049;-79
2022/10/21 08:11:38;;;;;;;25.00;13.77;;;15.70;99.90;;;14.14;68.90;100813.06;5018610;28;20053;-78
2022/10/21 08:14:07;;;;;;;29.92;15.40;;;15.40;99.90;;;13.71;69.98;100814.75;5018879;28;20464;-77
2022/10/21 08:16:35;;;;;;;20.60;13.52;;;15.10;99.90;;;13.30;71.81;100804.78;5015746;28;20037;-77
2022/10/21 08:19:02;;;;;;;21.45;13.93;;;14.60;99.90;;;12.46;73.53;100803.16;5018501;28;20029;-77
2022/10/21 08:21:30;;;;;;;25.90;15.98;;;14.10;99.90;;;12.23;75.09;100800.88;5019056;28;20034;-78
2022/10/21 08:23:57;;;;;;;26.77;15.15;;;13.70;99.90;;;12.14;76.29;100812.78;5019932;28;20460;-77
2022/10/21 08:26:24;;;;;;;28.77;16.60;;;13.60;99.90;;;12.43;76.40;100811.25;5041522;28;20030;-77
2022/10/21 08:28:51;;;;;;;28.55;14.68;;;13.80;99.90;;;13.02;75.45;100816.00;5019825;28;20034;-78
2022/10/21 08:31:20;;;;;;;25.10;15.13;;;14.20;99.90;;;13.61;73.29;100811.81;5019409;28;20397;-78
2022/10/21 08:33:47;;;;;;;24.52;14.55;;;14.80;99.90;;;14.49;71.33;100810.09;5020870;28;20025;-78
2022/10/21 08:36:20;;;;;;;14.57;9.38;;;15.40;99.90;;;15.03;69.27;100809.41;5016964;28;20660;-77
2022/10/21 08:38:46;;;;;;;17.27;11.07;;;15.90;99.90;;;15.08;68.39;100795.84;5035258;28;20030;-77
2022/10/21 08:41:38;;;;;;;17.33;10.15;;;16.10;99.90;;;14.83;68.25;100796.56;5037699;28;20032;-77
2022/10/21 08:44:45;;;;;;;19.75;12.10;;;15.90;99.90;;;14.20;69.96;100779.25;5020617;28;20079;-77
2022/10/21 08:47:23;;;;;;;19.98;11.82;;;15.40;99.90;;;13.89;71.59;100787.22;5021015;28;20104;-77
2022/10/21 08:50:29;;;;;;;22.15;13.98;;;15.00;99.90;;;13.40;72.74;100778.66;5020452;28;20103;-77
2022/10/21 08:53:07;;;;;;;20.25;13.50;;;14.70;99.90;;;13.23;73.90;100783.09;4958064;28;20399;-78
2022/10/21 08:55:38;;;;;;;22.80;13.15;;;14.40;99.90;;;12.96;74.87;100784.63;5021343;28;20053;-78
2022/10/21 08:58:13;;;;;;;24.55;14.40;;;14.10;99.90;;;12.84;76.20;100787.00;5035908;28;20034;-77
2022/10/21 09:00:58;;;;;;;30.30;14.55;;;13.90;99.90;;;12.80;76.58;100782.00;5019574;28;20056;-77
2022/10/21 09:03:58;;;;;;;23.70;17.52;;;13.40;99.90;;;12.55;77.89;100769.25;5017836;28;20069;-77
2022/10/21 09:06:42;;;;;;;51.08;43.80;;;13.60;99.90;;;12.40;78.43;100779.72;5020345;28;20036;-77
2022/10/21 09:09:31;;;;;;;21.65;14.43;;;13.40;99.90;;;12.22;79.01;100770.97;5018262;28;20030;-77
2022/10/21 09:12:18;;;;;;;25.02;14.00;;;13.30;99.90;;;12.01;79.84;100765.06;5019689;28;20037;-77
2022/10/21 09:15:10;;;;;;;23.40;13.85;;;13.10;99.90;;;11.93;81.26;100759.31;5017555;28;20069;-76
2022/10/21 09:18:19;;;;;;;26.60;15.55;;;13.00;99.90;;;11.85;81.87;100758.81;5018791;28;20165;-78
2022/10/21 09:20:54;;;;;;;33.13;14.93;;;13.00;99.90;;;11.89;82.91;100763.03;5023474;28;20025;-77
2022/10/21 09:23:55;;;;;;;20.48;14.63;;;12.90;99.90;;;11.68;83.37;100755.28;5034166;28;20385;-77
2022/10/21 09:26:46;;;;;;;27.73;15.00;;;12.80;99.90;;;11.46;84.41;100747.56;5018386;28;20045;-76
2022/10/21 09:29:30;;;;;;;21.60;14.60;;;12.80;99.90;;;11.58;85.07;100747.91;5039852;28;20045;-76
2022/10/21 09:32:19;;;;;;;26.65;14.95;;;12.80;99.90;;;11.65;85.72;100746.66;5021517;28;20584;-76
2022/10/21 09:34:54;;;;;;;27.95;14.52;;;12.80;99.90;;;11.74;86.38;100750.59;5022233;28;20534;-76
2022/10/21 09:38:22;;;;;;;19.98;14.15;;;12.90;99.90;;;11.83;87.05;100743.06;5018972;28;20037;-76
2022/10/21 09:40:58;;;;;;;21.23;13.23;;;13.00;99.90;;;12.12;86.39;100751.28;5011673;28;20037;-76
2022/10/21 09:43:26;;;;;;;23.00;13.25;;;13.20;99.90;;;12.38;85.58;100756.97;5021637;28;20459;-76
2022/10/21 09:45:57;;;;;;;18.13;12.38;;;13.30;99.90;;;12.52;84.22;100750.00;5021431;28;20405;-77
2022/10/21 09:48:49;;;;;;;19.65;13.23;;;13.50;99.90;;;12.70;83.41;100747.31;5020453;28;20037;-76
2022/10/21 09:51:31;;;;;;;21.98;13.85;;;13.70;99.90;;;12.87;83.17;100754.28;5021034;28;20125;-77
2022/10/21 09:54:10;;;;;;;1.80;1.35;;;13.80;99.90;;;12.96;82.47;100747.63;5014202;28;20037;-76
2022/10/21 09:57:15;;;;;;;1.13;1.00;;;13.90;99.90;;;13.07;81.76;100753.19;5022829;28;20052;-77
2022/10/21 10:00:03;;;;;;;2.47;2.20;;;14.00;99.90;;;13.11;82.31;100752.06;5021031;28;20930;-76
2022/10/21 10:02:43;;;;;;;23.70;15.35;;;14.10;99.90;;;13.20;82.12;100748.06;5034887;28;20077;-76
2022/10/21 10:05:42;;;;;;;22.77;12.75;;;14.10;99.90;;;13.28;81.60;100748.44;5020390;28;20045;-77
2022/10/21 10:08:44;;;;;;;18.45;12.77;;;14.30;99.90;;;13.63;82.23;100750.84;5026357;28;20536;-77
2022/10/21 10:11:20;;;;;;;17.30;11.98;;;14.50;99.90;;;13.82;81.05;100745.31;5022016;28;20072;-78
2022/10/21 10:13:59;;;;;;;18.48;11.88;;;14.70;99.90;;;14.12;80.55;100742.63;5036106;28;20041;-79
2022/10/21 10:16:32;;;;;;;19.73;11.55;;;14.90;99.90;;;14.26;79.74;100734.69;5010781;28;20025;-79
2022/10/21 10:19:26;;;;;;;20.60;11.25;;;15.10;99.90;;;14.40;78.81;100733.81;5021332;28;20757;-79
2022/10/21 10:22:17;;;;;;;18.05;11.25;;;15.20;99.90;;;14.32;77.87;100725.53;5001002;28;20038;-79
2022/10/21 10:24:49;;;;;;;18.67;11.30;;;15.20;99.90;;;14.24;77.91;100714.56;5036330;28;20153;-79
2022/10/21 10:27:25;;;;;;;22.67;11.88;;;15.20;99.90;;;14.24;78.06;100718.03;5027314;28;20047;-78
2022/10/21 10:29:55;;;;;;;18.23;12.20;;;15.20;99.90;;;14.26;78.09;100710.84;5020842;28;20120;-77
2022/10/21 10:32:30;;;;;;;18.58;12.18;;;15.20;99.90;;;14.27;78.52;100719.66;5019314;28;20116;-81
2022/10/21 10:35:07;;;;;;;22.97;11.83;;;15.10;99.90;;;14.03;78.15;100714.06;5019951;28;20029;-80
2022/10/21 10:37:45;;;;;;;22.25;12.15;;;15.00;99.90;;;13.91;78.51;100720.97;5021911;28;20040;-77
2022/10/21 10:40:30;;;;;;;19.73;10.88;;;14.90;99.90;;;13.81;79.07;100717.19;5005663;28;20057;-78
2022/10/21 10:43:26;;;;;;;22.30;11.68;;;14.90;99.90;;;13.79;79.53;100703.19;5022574;28;20241;-79
2022/10/21 10:46:07;;;;;;;15.10;10.25;;;14.80;99.90;;;13.84;79.77;100693.16;5023147;28;20036;-77
2022/10/21 10:48:52;;;;;;;22.90;13.02;;;14.80;99.90;;;13.90;80.07;100685.69;5035009;28;20029;-78
2022/10/21 10:51:32;;;;;;;21.45;11.98;;;14.80;99.90;;;13.95;79.73;100685.41;5019693;28;20128;-79
2022/10/21 10:54:28;;;;;;;22.80;11.07;;;14.90;99.90;;;13.96;79.20;100673.88;5036974;28;20042;-78
2022/10/21 10:57:23;;;;;;;19.80;12.57;;;14.90;99.90;;;13.78;79.72;100682.94;5037644;28;20034;-79
2022/10/21 11:00:22;;;;;;;17.42;13.00;;;14.70;99.90;;;13.60;80.87;100685.75;5022466;28;20545;-77
2022/10/21 11:03:03;;;;;;;19.90;12.55;;;14.70;99.90;;;13.59;81.10;100686.72;5018426;28;20080;-79